createdAt,value
2017-11-16T00:02:15.316Z,22.87
2017-11-16T00:04:43.221Z,24.10
2017-11-16T00:07:11.510Z,23.53
2017-11-16T00:09:39.795Z,22.47
2017-11-16T00:12:08.060Z,20.77
2017-11-16T00:14:36.932Z,20.83
2017-11-16T00:17:05.228Z,19.77
2017-11-16T00:19:33.161Z,21.53
2017-11-16T00:22:00.665Z,21.83
2017-11-16T00:24:28.199Z,20.60
2017-11-16T00:26:56.863Z,21.27
2017-11-16T00:29:25.896Z,20.03
2017-11-16T00:31:53.396Z,19.77
2017-11-16T00:34:20.914Z,20.83
2017-11-16T00:36:48.436Z,20.27
2017-11-16T00:39:17.298Z,20.47
2017-11-16T00:41:45.954Z,17.70
2017-11-16T00:44:13.469Z,17.90
2017-11-16T00:46:41.005Z,19.00
2017-11-16T00:49:09.889Z,19.40
2017-11-16T00:51:37.804Z,18.37
2017-11-16T00:54:06.438Z,18.47
2017-11-16T00:56:35.129Z,18.90
2017-11-16T00:59:03.772Z,18.63
2017-11-16T01:01:32.421Z,17.40
2017-11-16T01:03:59.953Z,21.00
2017-11-16T01:06:27.476Z,19.53
2017-11-16T01:08:56.343Z,19.37
2017-11-16T01:11:24.613Z,18.80
2017-11-16T01:13:53.486Z,18.73
2017-11-16T01:16:21.401Z,17.73
2017-11-16T01:18:50.287Z,17.23
2017-11-16T01:21:17.796Z,17.40
2017-11-16T01:23:45.340Z,16.37
2017-11-16T01:26:12.849Z,14.97
2017-11-16T01:28:40.371Z,17.50
2017-11-16T01:31:08.290Z,15.50
2017-11-16T01:33:37.143Z,14.70
2017-11-16T01:36:04.663Z,16.33
2017-11-16T01:38:32.568Z,14.10
2017-11-16T01:41:00.092Z,16.07
2017-11-16T01:43:27.601Z,16.00
2017-11-16T01:45:55.893Z,14.27
2017-11-16T01:48:23.396Z,14.93
2017-11-16T01:50:52.279Z,15.77
2017-11-16T01:53:19.803Z,15.00
2017-11-16T01:55:48.093Z,14.00
2017-11-16T01:58:16.364Z,13.40
2017-11-16T02:00:43.920Z,14.83
2017-11-16T02:03:11.424Z,16.20
2017-11-16T02:05:40.432Z,13.50
2017-11-16T02:08:08.726Z,12.93
2017-11-16T02:10:36.236Z,13.23
2017-11-16T02:13:04.185Z,15.37
2017-11-16T02:15:33.205Z,15.10
2017-11-16T02:18:02.080Z,17.27
2017-11-16T02:20:29.987Z,16.67
2017-11-16T02:22:57.926Z,13.90
2017-11-16T02:25:25.448Z,17.03
2017-11-16T02:27:52.978Z,16.53
2017-11-16T02:30:21.263Z,16.20
2017-11-16T02:32:48.809Z,16.93
2017-11-16T02:35:16.311Z,15.37
2017-11-16T02:37:43.809Z,17.53
2017-11-16T02:40:12.688Z,18.63
2017-11-16T02:42:41.335Z,19.60
2017-11-16T02:45:10.223Z,18.80
2017-11-16T02:47:37.756Z,16.13
2017-11-16T02:50:06.796Z,15.83
2017-11-16T02:52:35.433Z,18.00
2017-11-16T02:55:03.352Z,16.87
2017-11-16T02:57:32.215Z,17.93
2017-11-16T02:59:59.736Z,19.70
2017-11-16T03:02:28.604Z,18.80
2017-11-16T03:04:56.125Z,15.57
2017-11-16T03:10:46.204Z,17.30
2017-11-16T03:13:13.700Z,16.40
2017-11-16T03:15:42.364Z,17.97
2017-11-16T03:18:11.020Z,16.33
2017-11-16T03:20:39.908Z,16.27
2017-11-16T03:23:07.513Z,18.10
2017-11-16T03:25:36.385Z,19.07
2017-11-16T03:28:03.895Z,17.20
2017-11-16T03:30:31.414Z,17.73
2017-11-16T03:32:59.688Z,17.77
2017-11-16T03:35:28.728Z,15.87
2017-11-16T03:37:56.231Z,18.23
2017-11-16T03:40:24.543Z,18.77
2017-11-16T03:42:53.408Z,19.80
2017-11-16T03:45:21.750Z,20.27
2017-11-16T03:47:49.259Z,18.50
2017-11-16T03:50:16.761Z,16.90
2017-11-16T03:52:45.045Z,18.20
2017-11-16T03:55:12.548Z,15.00
2017-11-16T03:57:41.214Z,14.87
2017-11-16T04:00:08.715Z,16.47
2017-11-16T04:02:37.393Z,14.80
2017-11-16T04:05:06.251Z,13.47
2017-11-16T04:07:34.161Z,13.90
2017-11-16T04:10:02.806Z,13.70
2017-11-16T04:12:31.095Z,13.60
2017-11-16T04:14:58.601Z,12.33
2017-11-16T04:17:26.128Z,14.23
2017-11-16T04:19:55.131Z,14.40
2017-11-16T04:22:23.051Z,11.40
2017-11-16T04:24:51.917Z,11.90
2017-11-16T04:27:19.437Z,12.57
2017-11-16T04:29:46.963Z,12.00
2017-11-16T04:32:14.901Z,12.03
2017-11-16T04:34:42.810Z,10.83
2017-11-16T04:37:11.078Z,11.83
2017-11-16T04:39:39.368Z,11.00
2017-11-16T04:42:07.717Z,11.27
2017-11-16T04:44:35.656Z,11.80
2017-11-16T04:47:04.522Z,13.03
2017-11-16T04:49:32.051Z,10.60
2017-11-16T04:51:59.557Z,10.80
2017-11-16T04:54:27.071Z,11.47
2017-11-16T04:56:54.568Z,12.70
2017-11-16T04:59:22.848Z,11.87
2017-11-16T05:01:51.492Z,11.43
2017-11-16T05:04:19.003Z,11.43
2017-11-16T05:06:46.532Z,12.20
2017-11-16T05:09:14.228Z,11.43
2017-11-16T05:11:41.757Z,10.53
2017-11-16T05:14:10.029Z,11.93
2017-11-16T05:16:38.416Z,10.30
2017-11-16T05:19:05.924Z,11.60
2017-11-16T05:21:34.979Z,13.10
2017-11-16T05:24:03.254Z,9.43
2017-11-16T05:26:30.760Z,11.00
2017-11-16T05:28:58.371Z,13.27
2017-11-16T05:31:26.834Z,10.70
2017-11-16T05:33:54.485Z,11.17
2017-11-16T05:36:22.748Z,10.20
2017-11-16T05:38:50.421Z,10.90
2017-11-16T05:41:17.933Z,10.53
2017-11-16T05:43:45.457Z,12.13
2017-11-16T05:46:13.350Z,12.33
2017-11-16T05:48:41.643Z,11.90
2017-11-16T05:51:09.552Z,12.43
2017-11-16T05:53:37.107Z,11.90
2017-11-16T05:56:04.616Z,11.60
2017-11-16T05:58:32.732Z,11.70
2017-11-16T06:01:00.248Z,12.30
2017-11-16T06:03:29.134Z,12.00
2017-11-16T06:05:57.125Z,12.20
2017-11-16T06:08:26.137Z,11.90
2017-11-16T06:10:53.663Z,11.80
2017-11-16T06:13:21.170Z,11.50
2017-11-16T06:15:48.679Z,13.03
2017-11-16T06:18:16.235Z,12.33
2017-11-16T06:20:43.752Z,11.97
2017-11-16T06:23:11.248Z,10.73
2017-11-16T06:25:38.768Z,10.40
2017-11-16T06:28:06.379Z,11.83
2017-11-16T06:30:34.750Z,13.33
2017-11-16T06:33:03.021Z,13.97
2017-11-16T06:35:32.056Z,13.93
2017-11-16T06:37:59.569Z,12.33
2017-11-16T06:40:27.861Z,15.00
2017-11-16T06:42:56.725Z,12.67
2017-11-16T06:45:24.246Z,14.53
2017-11-16T06:47:52.521Z,12.83
2017-11-16T06:50:20.807Z,12.40
2017-11-16T06:52:48.321Z,12.30
2017-11-16T06:55:16.231Z,13.10
2017-11-16T06:57:44.877Z,11.50
2017-11-16T07:00:13.173Z,11.20
2017-11-16T07:02:40.852Z,11.87
2017-11-16T07:05:09.158Z,12.10
2017-11-16T07:07:36.663Z,11.53
2017-11-16T07:10:05.339Z,11.17
2017-11-16T07:12:33.613Z,13.60
2017-11-16T07:15:02.009Z,13.43
2017-11-16T07:17:29.665Z,11.23
2017-11-16T07:19:57.185Z,11.23
2017-11-16T07:22:25.478Z,10.43
2017-11-16T07:24:53.875Z,12.20
2017-11-16T07:27:21.409Z,11.50
2017-11-16T07:29:49.809Z,11.77
2017-11-16T07:32:17.465Z,10.57
2017-11-16T07:34:46.156Z,10.97
2017-11-16T07:37:13.687Z,11.37
2017-11-16T07:39:42.712Z,11.23
2017-11-16T07:42:10.236Z,10.97
2017-11-16T07:44:38.873Z,9.43
2017-11-16T07:47:06.884Z,10.33
2017-11-16T07:49:34.779Z,10.10
2017-11-16T07:52:03.441Z,11.20
2017-11-16T07:54:31.729Z,9.70
2017-11-16T07:56:59.260Z,10.20
2017-11-16T07:59:27.655Z,10.20
2017-11-16T08:01:55.315Z,10.80
2017-11-16T08:04:22.818Z,11.03
2017-11-16T08:06:50.344Z,11.77
2017-11-16T08:09:18.713Z,10.20
2017-11-16T08:11:46.232Z,10.60
2017-11-16T08:14:14.515Z,9.70
2017-11-16T08:16:42.033Z,11.50
2017-11-16T08:19:09.935Z,10.10
2017-11-16T08:21:37.853Z,11.83
2017-11-16T08:24:06.688Z,10.80
2017-11-16T08:26:34.348Z,10.57
2017-11-16T08:29:01.852Z,12.10
2017-11-16T08:31:30.275Z,11.30
2017-11-16T08:33:57.837Z,11.70
2017-11-16T08:36:26.143Z,9.97
2017-11-16T08:38:53.668Z,10.20
2017-11-16T08:41:22.145Z,10.33
2017-11-16T08:43:49.817Z,11.23
2017-11-16T08:46:18.480Z,10.10
2017-11-16T08:48:45.984Z,10.83
2017-11-16T08:51:13.509Z,10.23
2017-11-16T08:53:41.060Z,10.60
2017-11-16T08:56:08.587Z,10.07
2017-11-16T08:58:36.179Z,9.93
2017-11-16T09:01:03.820Z,10.90
2017-11-16T09:03:31.349Z,11.50
2017-11-16T09:05:59.624Z,10.40
2017-11-16T09:08:27.622Z,10.53
2017-11-16T09:10:55.120Z,9.37
2017-11-16T09:13:22.746Z,9.60
2017-11-16T09:15:50.401Z,9.67
2017-11-16T09:18:17.922Z,10.53
2017-11-16T09:20:46.200Z,10.63
2017-11-16T09:23:14.601Z,9.67
2017-11-16T09:25:42.109Z,9.83
2017-11-16T09:28:10.037Z,11.87
2017-11-16T09:30:37.578Z,9.83
2017-11-16T09:33:05.079Z,8.10
2017-11-16T09:35:33.357Z,10.83
2017-11-16T09:38:00.889Z,12.23
2017-11-16T09:40:28.404Z,11.63
2017-11-16T09:42:56.332Z,10.43
2017-11-16T09:45:23.944Z,11.30
2017-11-16T09:47:52.291Z,9.70
2017-11-16T09:50:21.304Z,11.13
2017-11-16T09:52:48.845Z,11.93
2017-11-16T09:55:16.352Z,10.23
2017-11-16T09:57:44.068Z,11.20
2017-11-16T10:00:11.978Z,10.37
2017-11-16T10:02:39.600Z,11.10
2017-11-16T10:05:07.121Z,10.00
2017-11-16T10:07:35.395Z,10.73
2017-11-16T10:10:03.700Z,10.83
2017-11-16T10:12:31.647Z,12.53
2017-11-16T10:14:59.173Z,11.93
2017-11-16T10:17:27.809Z,10.83
2017-11-16T10:19:55.451Z,10.40
2017-11-16T10:22:22.962Z,10.83
2017-11-16T10:24:50.577Z,11.60
2017-11-16T10:27:19.600Z,10.60
2017-11-16T10:29:47.326Z,12.53
2017-11-16T10:32:14.986Z,11.47
2017-11-16T10:34:43.276Z,9.73
2017-11-16T10:37:11.554Z,11.53
2017-11-16T10:39:39.185Z,10.80
2017-11-16T10:42:06.692Z,12.00
2017-11-16T10:44:35.004Z,11.10
2017-11-16T10:47:02.571Z,9.90
2017-11-16T10:49:30.489Z,10.20
2017-11-16T10:51:58.102Z,10.57
2017-11-16T10:54:26.564Z,11.10
2017-11-16T10:56:54.083Z,11.53
2017-11-16T10:59:21.601Z,10.80
2017-11-16T11:01:49.143Z,11.40
2017-11-16T11:04:16.685Z,11.90
2017-11-16T11:06:44.961Z,10.60
2017-11-16T11:09:12.486Z,10.63
2017-11-16T11:11:40.387Z,11.53
2017-11-16T11:14:08.049Z,12.50
2017-11-16T11:16:35.579Z,11.90
2017-11-16T11:19:03.175Z,11.47
2017-11-16T11:21:30.809Z,10.33
2017-11-16T11:23:58.884Z,11.20
2017-11-16T11:26:27.760Z,10.43
2017-11-16T11:28:55.442Z,11.17
2017-11-16T11:31:22.996Z,11.47
2017-11-16T11:33:52.006Z,11.60
2017-11-16T11:36:19.520Z,12.60
2017-11-16T11:38:47.082Z,11.53
2017-11-16T11:41:14.737Z,11.40
2017-11-16T11:43:43.604Z,11.00
2017-11-16T11:46:11.917Z,10.33
2017-11-16T11:48:39.560Z,11.73
2017-11-16T11:51:07.084Z,10.37
2017-11-16T11:53:35.361Z,10.03
2017-11-16T11:56:03.669Z,11.90
2017-11-16T11:58:31.216Z,11.43
2017-11-16T12:00:58.744Z,11.30
2017-11-16T12:03:26.652Z,10.57
2017-11-16T12:05:54.209Z,10.07
2017-11-16T12:08:21.711Z,10.43
2017-11-16T12:10:49.315Z,10.23
2017-11-16T12:13:16.865Z,10.47
2017-11-16T12:15:44.412Z,10.00
2017-11-16T12:18:11.938Z,9.20
2017-11-16T12:20:39.531Z,10.40
2017-11-16T12:23:07.192Z,9.87
2017-11-16T12:25:34.688Z,9.43
2017-11-16T12:28:02.321Z,10.63
2017-11-16T12:30:29.835Z,10.30
2017-11-16T12:32:58.127Z,10.80
2017-11-16T12:35:25.636Z,9.60
2017-11-16T12:37:53.951Z,10.47
2017-11-16T12:40:21.853Z,9.97
2017-11-16T12:42:50.149Z,10.30
2017-11-16T12:45:17.767Z,9.60
2017-11-16T12:47:46.068Z,10.40
2017-11-16T12:50:13.976Z,11.10
2017-11-16T12:52:42.351Z,11.13
2017-11-16T12:55:09.849Z,11.23
2017-11-16T12:57:38.753Z,9.27
2017-11-16T13:00:06.286Z,11.20
2017-11-16T13:02:34.946Z,10.87
2017-11-16T13:05:02.468Z,11.93
2017-11-16T13:07:30.786Z,12.07
2017-11-16T13:09:58.293Z,11.37
2017-11-16T13:12:25.816Z,11.90
2017-11-16T13:14:53.361Z,10.13
2017-11-16T13:17:20.950Z,11.20
2017-11-16T13:19:48.465Z,11.30
2017-11-16T13:22:16.013Z,9.87
2017-11-16T13:24:44.654Z,11.90
2017-11-16T13:27:12.367Z,10.70
2017-11-16T13:29:40.748Z,11.77
2017-11-16T13:32:08.266Z,11.13
2017-11-16T13:34:35.880Z,12.87
2017-11-16T13:37:03.421Z,11.27
2017-11-16T13:39:30.947Z,11.53
2017-11-16T13:41:59.759Z,12.37
2017-11-16T13:44:28.643Z,10.57
2017-11-16T13:46:57.115Z,10.23
2017-11-16T13:49:24.764Z,11.10
2017-11-16T13:51:52.291Z,11.87
2017-11-16T13:54:20.288Z,10.93
2017-11-16T13:56:47.792Z,12.93
2017-11-16T13:59:15.739Z,12.20
2017-11-16T14:01:43.249Z,13.13
2017-11-16T14:04:11.156Z,11.80
2017-11-16T14:06:38.812Z,12.30
2017-11-16T14:09:06.460Z,13.90
2017-11-16T14:11:34.753Z,14.17
2017-11-16T14:14:02.269Z,12.13
2017-11-16T14:16:29.823Z,15.50
2017-11-16T14:18:57.332Z,13.10
2017-11-16T14:21:24.867Z,13.07
2017-11-16T14:23:52.384Z,13.80
2017-11-16T14:26:19.905Z,14.17
2017-11-16T14:28:47.520Z,14.23
2017-11-16T14:31:15.157Z,13.13
2017-11-16T14:33:42.832Z,14.47
2017-11-16T14:36:11.100Z,12.80
2017-11-16T14:38:38.640Z,13.67
2017-11-16T14:41:06.546Z,12.33
2017-11-16T14:43:34.285Z,12.30
2017-11-16T14:46:01.801Z,12.87
2017-11-16T14:48:30.104Z,14.67
2017-11-16T14:50:57.609Z,13.60
2017-11-16T14:53:25.139Z,14.30
2017-11-16T14:55:53.800Z,14.47
2017-11-16T14:58:21.316Z,13.97
2017-11-16T15:00:50.143Z,13.27
2017-11-16T15:03:18.448Z,14.27
2017-11-16T15:05:45.956Z,12.97
2017-11-16T15:08:14.229Z,14.10
2017-11-16T15:10:42.208Z,14.27
2017-11-16T15:13:09.885Z,13.80
2017-11-16T15:15:37.404Z,14.93
2017-11-16T15:18:05.681Z,13.00
2017-11-16T15:20:34.719Z,13.60
2017-11-16T15:23:02.992Z,13.77
2017-11-16T15:25:30.630Z,12.93
2017-11-16T15:27:58.146Z,12.90
2017-11-16T15:30:26.524Z,13.57
2017-11-16T15:32:54.417Z,13.77
2017-11-16T15:35:22.068Z,14.60
2017-11-16T15:37:49.572Z,13.10
2017-11-16T15:40:18.221Z,11.47
2017-11-16T15:42:46.142Z,12.07
2017-11-16T15:45:14.784Z,14.10
2017-11-16T15:47:42.313Z,15.60
2017-11-16T15:50:09.820Z,14.60
2017-11-16T15:52:38.865Z,14.80
2017-11-16T15:55:06.369Z,14.37
2017-11-16T15:57:34.677Z,14.90
2017-11-16T16:00:02.584Z,14.80
2017-11-16T16:02:30.117Z,13.43
2017-11-16T16:04:58.390Z,14.13
2017-11-16T16:07:25.892Z,13.20
2017-11-16T16:09:54.189Z,13.20
2017-11-16T16:12:22.090Z,12.80
2017-11-16T16:14:50.573Z,13.63
2017-11-16T16:17:18.467Z,12.83
2017-11-16T16:19:45.989Z,12.17
2017-11-16T16:22:15.000Z,13.70
2017-11-16T16:24:44.077Z,19.50
2017-11-16T16:27:11.610Z,13.50
2017-11-16T16:29:39.174Z,13.87
2017-11-16T16:32:08.200Z,13.23
2017-11-16T16:34:37.360Z,14.10
2017-11-16T16:37:04.911Z,14.60
2017-11-16T16:39:32.471Z,11.70
2017-11-16T16:41:59.997Z,15.13
2017-11-16T16:44:28.276Z,15.73
2017-11-16T16:46:56.211Z,15.33
2017-11-16T16:49:24.113Z,14.47
2017-11-16T16:51:51.665Z,14.70
2017-11-16T16:54:20.537Z,12.03
2017-11-16T16:56:49.358Z,13.07
2017-11-16T16:59:17.018Z,13.40
2017-11-16T17:01:44.525Z,13.57
2017-11-16T17:04:12.819Z,12.90
2017-11-16T17:06:40.333Z,11.33
2017-11-16T17:09:08.060Z,12.17
2017-11-16T17:11:35.551Z,11.53
2017-11-16T17:14:03.072Z,10.60
2017-11-16T17:16:30.593Z,11.40
2017-11-16T17:18:58.512Z,11.10
2017-11-16T17:21:26.021Z,12.10
2017-11-16T17:23:54.828Z,12.20
2017-11-16T17:26:22.336Z,12.60
2017-11-16T17:28:49.842Z,10.47
2017-11-16T17:31:17.368Z,13.50
2017-11-16T17:33:45.273Z,11.67
2017-11-16T17:36:12.795Z,14.97
2017-11-16T17:38:40.288Z,13.50
2017-11-16T17:41:07.824Z,11.80
2017-11-16T17:43:35.472Z,11.23
2017-11-16T17:46:04.164Z,10.97
2017-11-16T17:48:31.677Z,12.90
2017-11-16T17:51:00.563Z,13.77
2017-11-16T17:53:29.205Z,13.23
2017-11-16T17:55:57.262Z,13.27
2017-11-16T17:58:25.529Z,14.10
2017-11-16T18:00:53.188Z,13.17
2017-11-16T18:03:20.840Z,14.93
2017-11-16T18:05:49.112Z,13.47
2017-11-16T18:08:16.640Z,16.70
2017-11-16T18:10:45.665Z,15.50
2017-11-16T18:13:13.193Z,14.03
2017-11-16T18:15:42.223Z,14.90
2017-11-16T18:18:09.752Z,14.17
2017-11-16T18:20:37.256Z,13.63
2017-11-16T18:23:05.385Z,14.50
2017-11-16T18:25:33.278Z,13.47
2017-11-16T18:28:00.913Z,12.77
2017-11-16T18:30:29.568Z,12.40
2017-11-16T18:32:57.249Z,12.53
2017-11-16T18:35:24.918Z,14.00
2017-11-16T18:37:52.560Z,14.17
2017-11-16T18:40:20.480Z,13.60
2017-11-16T18:42:48.780Z,14.13
2017-11-16T18:45:16.697Z,13.47
2017-11-16T18:47:44.235Z,13.30
2017-11-16T18:50:11.895Z,12.30
2017-11-16T18:52:40.894Z,13.47
2017-11-16T18:55:09.803Z,15.00
2017-11-16T18:57:37.310Z,13.67
2017-11-16T19:00:04.976Z,14.67
2017-11-16T19:02:33.045Z,14.00
2017-11-16T19:05:00.944Z,13.57
2017-11-16T19:07:29.599Z,13.73
2017-11-16T19:09:57.497Z,13.80
2017-11-16T19:12:25.521Z,14.17
2017-11-16T19:14:53.999Z,15.40
2017-11-16T19:17:22.657Z,13.80
2017-11-16T19:19:51.520Z,15.50
2017-11-16T19:22:19.071Z,14.20
2017-11-16T19:24:46.597Z,14.47
2017-11-16T19:27:14.108Z,14.67
2017-11-16T19:29:41.631Z,15.30
2017-11-16T19:32:09.131Z,14.40
2017-11-16T19:34:36.697Z,14.00
2017-11-16T19:37:04.365Z,14.33
2017-11-16T19:39:32.662Z,12.30
2017-11-16T19:42:00.552Z,14.57
2017-11-16T19:44:28.095Z,14.40
2017-11-16T19:46:56.360Z,13.17
2017-11-16T19:49:23.855Z,13.63
2017-11-16T19:51:52.152Z,15.23
2017-11-16T19:54:19.660Z,15.00
2017-11-16T19:56:47.188Z,14.57
2017-11-16T19:59:16.172Z,15.63
2017-11-16T20:01:45.200Z,13.47
2017-11-16T20:04:13.843Z,14.60
2017-11-16T20:06:42.135Z,13.77
2017-11-16T20:09:09.657Z,15.43
2017-11-16T20:11:37.198Z,12.90
2017-11-16T20:14:06.058Z,15.60
2017-11-16T20:16:33.565Z,13.03
2017-11-16T20:19:02.230Z,15.20
2017-11-16T20:21:29.734Z,13.20
2017-11-16T20:23:58.877Z,14.23
2017-11-16T20:26:26.376Z,14.90
2017-11-16T20:28:54.321Z,16.60
2017-11-16T20:31:21.855Z,14.67
2017-11-16T20:33:49.393Z,14.40
2017-11-16T20:36:17.661Z,14.63
2017-11-16T20:38:50.478Z,15.90
2017-11-16T20:41:18.899Z,17.50
2017-11-16T20:43:52.152Z,15.10
2017-11-16T20:46:36.333Z,14.07
2017-11-16T20:49:06.552Z,14.57
2017-11-16T20:51:54.083Z,15.07
2017-11-16T20:54:37.393Z,15.90
2017-11-16T20:57:04.897Z,14.27
2017-11-16T20:59:32.412Z,14.17
2017-11-16T21:02:00.306Z,15.73
2017-11-16T21:04:29.287Z,16.27
2017-11-16T21:06:56.788Z,14.17
2017-11-16T21:09:25.543Z,13.83
2017-11-16T21:11:53.204Z,14.93
2017-11-16T21:14:21.101Z,13.77
2017-11-16T21:16:49.393Z,15.60
2017-11-16T21:19:16.893Z,14.60
2017-11-16T21:21:44.409Z,15.47
2017-11-16T21:24:11.918Z,13.53
2017-11-16T21:26:39.580Z,15.80
2017-11-16T21:29:07.084Z,14.87
2017-11-16T21:31:34.604Z,13.37
2017-11-16T21:34:03.377Z,15.00
2017-11-16T21:36:30.884Z,15.73
2017-11-16T21:38:59.709Z,17.03
2017-11-16T21:41:27.221Z,14.17
2017-11-16T21:43:55.136Z,14.53
2017-11-16T21:46:23.396Z,15.50
2017-11-16T21:48:52.275Z,13.33
2017-11-16T21:51:21.077Z,15.50
2017-11-16T21:53:48.716Z,16.00
2017-11-16T21:56:16.220Z,14.70
2017-11-16T21:58:43.774Z,15.33
2017-11-16T22:01:11.281Z,15.43
2017-11-16T22:03:40.139Z,15.40
2017-11-16T22:06:09.277Z,14.90
2017-11-16T22:08:38.139Z,16.10
2017-11-16T22:11:06.448Z,16.27
2017-11-16T22:13:33.956Z,15.13
2017-11-16T22:16:01.484Z,17.63
2017-11-16T22:18:29.752Z,14.17
2017-11-16T22:20:57.678Z,15.97
2017-11-16T22:23:25.591Z,15.63
2017-11-16T22:25:53.210Z,16.07
2017-11-16T22:28:21.851Z,16.40
2017-11-16T22:30:49.349Z,15.10
2017-11-16T22:33:17.024Z,15.97
2017-11-16T22:35:44.674Z,16.10
2017-11-16T22:38:12.208Z,17.67
2017-11-16T22:40:39.785Z,15.30
2017-11-16T22:43:07.312Z,15.57
2017-11-16T22:45:36.331Z,16.20
2017-11-16T22:48:03.956Z,15.47
2017-11-16T22:50:32.241Z,15.40
2017-11-16T22:52:59.863Z,16.33
2017-11-16T22:55:27.364Z,14.80
2017-11-16T22:57:54.905Z,17.07
2017-11-16T23:00:25.367Z,15.87
2017-11-16T23:02:53.014Z,15.53
2017-11-16T23:05:20.535Z,16.53
2017-11-16T23:07:49.460Z,16.57
2017-11-16T23:10:17.371Z,15.53
2017-11-16T23:12:44.893Z,17.67
2017-11-16T23:15:12.932Z,16.17
2017-11-16T23:17:40.835Z,15.00
2017-11-16T23:20:09.138Z,17.00
2017-11-16T23:22:37.139Z,17.20
2017-11-16T23:25:05.059Z,17.10
2017-11-16T23:27:32.573Z,15.80
2017-11-16T23:30:00.088Z,15.67
2017-11-16T23:32:28.935Z,17.10
2017-11-16T23:34:56.452Z,15.60
2017-11-16T23:37:24.356Z,15.30
2017-11-16T23:39:52.411Z,16.07
2017-11-16T23:42:19.933Z,14.57
2017-11-16T23:44:47.496Z,15.87
2017-11-16T23:47:15.768Z,17.10
2017-11-16T23:49:43.300Z,16.37
2017-11-16T23:52:11.586Z,16.33
2017-11-16T23:54:39.889Z,16.97
2017-11-16T23:57:07.417Z,15.57
2017-11-16T23:59:35.716Z,15.83
